createdAt,value
2022-10-23T17:02:55.421Z,68.72
2022-10-23T17:05:23.589Z,73.70
2022-10-23T17:07:51.494Z,73.75
2022-10-23T17:10:19.574Z,71.97
2022-10-23T17:12:50.084Z,78.35
2022-10-23T17:15:18.441Z,76.03
2022-10-23T17:17:46.615Z,73.03
2022-10-23T17:20:17.372Z,79.47
2022-10-23T17:22:45.299Z,77.82
2022-10-23T17:25:13.364Z,76.10
2022-10-23T17:27:41.310Z,73.03
2022-10-23T17:30:12.618Z,70.43
2022-10-23T17:32:41.161Z,74.22
2022-10-23T17:35:09.534Z,77.93
2022-10-23T17:37:37.441Z,77.93
2022-10-23T17:40:06.946Z,76.97
2022-10-23T17:42:35.014Z,72.55
2022-10-23T17:45:02.901Z,81.50
2022-10-23T17:47:31.051Z,75.70
2022-10-23T17:49:59.683Z,70.53
2022-10-23T17:52:27.450Z,68.80
2022-10-23T17:54:56.708Z,89.55
2022-10-23T17:57:24.445Z,74.10
2022-10-23T17:59:52.182Z,69.80
2022-10-23T18:02:20.112Z,74.10
2022-10-23T18:04:47.911Z,67.93
2022-10-23T18:07:17.054Z,71.88
2022-10-23T18:09:45.162Z,67.78
2022-10-23T18:12:13.661Z,70.20
2022-10-23T18:14:41.348Z,70.57
2022-10-23T18:17:09.067Z,68.90
2022-10-23T18:19:36.860Z,71.20
2022-10-23T18:22:04.758Z,72.60
2022-10-23T18:24:35.066Z,69.07
2022-10-23T18:27:02.881Z,67.32
2022-10-23T18:29:31.013Z,71.45
2022-10-23T18:31:58.889Z,78.53
2022-10-23T18:34:26.807Z,74.70
2022-10-23T18:36:54.971Z,74.68
2022-10-23T18:39:25.535Z,71.43
2022-10-23T18:41:57.194Z,80.97
2022-10-23T18:44:29.103Z,80.88
2022-10-23T18:46:59.083Z,84.03
2022-10-23T18:49:30.667Z,78.82
2022-10-23T18:52:11.616Z,77.57
2022-10-23T18:54:46.170Z,80.30
2022-10-23T18:57:15.615Z,83.20
2022-10-23T18:59:43.425Z,77.82
2022-10-23T19:02:13.894Z,80.95
2022-10-23T19:04:42.224Z,104.07
2022-10-23T19:07:10.201Z,100.18
2022-10-23T19:09:40.347Z,85.93
2022-10-23T19:12:09.874Z,91.30
2022-10-23T19:14:37.630Z,82.20
2022-10-23T19:17:26.935Z,90.07
2022-10-23T19:20:11.400Z,91.90
2022-10-23T19:22:43.274Z,91.03
2022-10-23T19:25:18.433Z,85.07
2022-10-23T19:28:09.352Z,92.43
2022-10-23T19:30:37.904Z,93.10
2022-10-23T19:33:06.013Z,90.63
2022-10-23T19:35:38.567Z,93.90
2022-10-23T19:38:12.071Z,96.85
2022-10-23T19:40:45.591Z,96.95
2022-10-23T19:43:15.699Z,102.93
2022-10-23T19:45:47.776Z,95.28
2022-10-23T19:48:15.681Z,94.28
2022-10-23T19:50:43.671Z,97.47
2022-10-23T19:53:11.990Z,97.18
2022-10-23T19:55:39.824Z,107.00
2022-10-23T19:58:08.972Z,108.63
2022-10-23T20:00:41.509Z,100.78
2022-10-23T20:03:13.046Z,106.35
2022-10-23T20:05:45.512Z,106.80
2022-10-23T20:08:13.393Z,118.28
2022-10-23T20:10:50.615Z,128.57
2022-10-23T20:13:36.591Z,120.28
2022-10-23T20:16:31.130Z,122.63
2022-10-23T20:19:12.115Z,115.57
2022-10-23T20:21:52.183Z,120.78
2022-10-23T20:24:21.018Z,124.00
2022-10-23T20:26:52.353Z,122.70
2022-10-23T20:29:21.251Z,122.82
2022-10-23T20:31:49.088Z,116.25
2022-10-23T20:34:19.705Z,116.80
2022-10-23T20:36:49.980Z,117.38
2022-10-23T20:39:21.518Z,128.43
2022-10-23T20:41:49.371Z,108.80
2022-10-23T20:44:19.422Z,120.22
2022-10-23T20:46:54.840Z,117.35
2022-10-23T20:49:23.321Z,117.30
2022-10-23T20:51:56.636Z,121.28
2022-10-23T20:54:27.052Z,129.63
2022-10-23T20:57:21.428Z,126.10
2022-10-23T21:00:17.471Z,127.35
2022-10-23T21:02:52.084Z,114.90
2022-10-23T21:05:21.702Z,115.10
2022-10-23T21:08:14.272Z,123.55
2022-10-23T21:10:48.728Z,108.22
2022-10-23T21:13:43.225Z,133.02
2022-10-23T21:16:34.185Z,117.65
2022-10-23T21:19:03.944Z,126.03
2022-10-23T21:21:33.396Z,122.28
2022-10-23T21:24:07.539Z,128.25
2022-10-23T21:26:37.041Z,132.27
2022-10-23T21:29:17.987Z,138.70
2022-10-23T21:31:56.359Z,140.15
2022-10-23T21:34:25.702Z,134.73
2022-10-23T21:37:12.497Z,139.90
2022-10-23T21:39:44.237Z,140.48
2022-10-23T21:42:14.188Z,142.23
2022-10-23T21:44:43.601Z,139.55
2022-10-23T21:47:13.530Z,152.48
2022-10-23T21:49:42.961Z,151.80
2022-10-23T21:52:10.681Z,150.50
2022-10-23T21:54:38.500Z,146.95
2022-10-23T21:57:12.957Z,142.25
2022-10-23T22:00:05.850Z,145.77
2022-10-23T22:02:40.386Z,145.98
2022-10-23T22:05:10.418Z,149.85
2022-10-23T22:07:48.161Z,159.35
2022-10-23T22:10:16.030Z,150.43
2022-10-23T22:12:45.728Z,152.40
2022-10-23T22:15:13.540Z,153.50
2022-10-23T22:17:41.451Z,151.65
2022-10-23T22:20:09.631Z,169.98
2022-10-23T22:22:40.323Z,152.32
2022-10-23T22:25:08.890Z,158.45
2022-10-23T22:27:38.315Z,151.00
2022-10-23T22:30:06.713Z,151.10
2022-10-23T22:32:35.508Z,154.63
2022-10-23T22:35:03.471Z,154.23
2022-10-23T22:37:31.087Z,154.02
2022-10-23T22:40:00.041Z,157.18
2022-10-23T22:42:27.623Z,152.35
2022-10-23T22:44:55.341Z,148.35
2022-10-23T22:47:23.014Z,157.18
2022-10-23T22:49:51.804Z,157.93
2022-10-23T22:52:44.427Z,147.43
2022-10-23T22:55:12.347Z,159.43
2022-10-23T22:57:39.973Z,157.75
2022-10-23T23:00:10.470Z,157.77
2022-10-23T23:02:38.177Z,156.85
2022-10-23T23:05:06.107Z,155.75
2022-10-23T23:07:34.001Z,157.25
2022-10-23T23:10:01.733Z,149.55
2022-10-23T23:12:29.478Z,137.98
2022-10-23T23:15:01.403Z,152.45
2022-10-23T23:17:29.110Z,137.45
2022-10-23T23:19:56.860Z,144.77
2022-10-23T23:24:52.529Z,147.02
2022-10-23T23:27:20.322Z,136.48
2022-10-23T23:29:48.184Z,142.00
2022-10-23T23:32:41.706Z,133.32
2022-10-23T23:35:10.230Z,130.52
2022-10-23T23:37:37.939Z,149.88
2022-10-23T23:40:06.355Z,145.52
2022-10-23T23:42:34.089Z,146.23
2022-10-23T23:45:13.618Z,141.65
2022-10-23T23:47:43.142Z,137.02
2022-10-23T23:50:12.132Z,134.98
2022-10-23T23:52:39.862Z,137.80
2022-10-23T23:55:32.285Z,142.73
2022-10-23T23:58:00.155Z,151.73
